Willsboro, New York
Current Conditions -  °F | °C
As of 2:54 PM on Thursday 27 Nov 2014 (Local Time) from KBTV Reporting Station
Overcast Overcast  
Wind Chill: 22°   Ceiling: 2900
Heat Index: 29°   Visibility: 10mi
Dew Point: 19°   Wind: 7mph
Humidity: 67%   Direction: 10°N
Pressure: 30.02"   Gusts: NA
Location:  44.36°N, 73.39°W
Report Text: KBTV 271954Z 01006KT 10SM OVC029 M02/M07 A3002 RMK AO2 SLP172 T10171072
Loading
Personal Weather Stations






























Interactive Weather Map New forecast layout! Learn more

10-Day Weather Forecast

Advertisements
Track Severe Weather on mobile